createdAt,value
2023-03-22T00:03:05.130Z,93433.78
2023-03-22T00:08:14.222Z,93433.98
2023-03-22T00:13:21.078Z,93434.83
2023-03-22T00:18:28.693Z,93436.09
2023-03-22T00:23:35.605Z,93431.45
2023-03-22T00:28:43.206Z,93436.27
2023-03-22T00:33:50.082Z,93427.77
2023-03-22T00:38:57.075Z,93425.96
2023-03-22T00:44:03.961Z,93421.70
2023-03-22T00:49:11.380Z,93424.86
2023-03-22T00:54:18.633Z,93417.24
2023-03-22T00:59:25.849Z,93408.94
2023-03-22T01:04:33.525Z,93406.70
2023-03-22T01:09:40.265Z,93406.09
2023-03-22T01:14:47.696Z,93404.00
2023-03-22T01:19:54.601Z,93402.92
2023-03-22T01:25:01.660Z,93402.24
2023-03-22T01:30:10.035Z,93399.30
2023-03-22T01:35:16.821Z,93389.53
2023-03-22T01:40:23.930Z,93381.08
2023-03-22T01:45:40.885Z,93378.84
2023-03-22T01:50:57.964Z,93376.27
2023-03-22T01:56:05.875Z,93373.27
2023-03-22T02:01:14.653Z,93368.38
2023-03-22T02:06:23.383Z,93369.27
2023-03-22T02:11:34.253Z,93366.33
2023-03-22T02:17:09.543Z,93368.35
2023-03-22T02:22:47.577Z,93357.55
2023-03-22T02:28:21.842Z,93365.70
2023-03-22T02:33:59.970Z,93366.40
2023-03-22T02:39:11.133Z,93364.92
2023-03-22T02:44:40.059Z,93370.39
2023-03-22T02:49:54.056Z,93362.34
2023-03-22T02:55:03.228Z,93357.66
2023-03-22T03:00:12.837Z,93361.88
2023-03-22T03:05:21.242Z,93361.63
2023-03-22T03:10:29.052Z,93360.30
2023-03-22T03:15:36.395Z,93363.88
2023-03-22T03:20:47.557Z,93368.22
2023-03-22T03:26:16.655Z,93360.89
2023-03-22T03:31:27.884Z,93359.08
2023-03-22T03:36:38.258Z,93363.56
2023-03-22T03:41:47.972Z,93364.36
2023-03-22T03:46:56.555Z,93366.73
2023-03-22T03:52:05.009Z,93364.13
2023-03-22T03:57:12.344Z,93361.48
2023-03-22T04:02:19.171Z,93364.69
2023-03-22T04:07:25.831Z,93361.22
2023-03-22T04:12:33.489Z,93360.92
2023-03-22T04:17:41.067Z,93367.53
2023-03-22T04:22:49.165Z,93364.92
2023-03-22T04:27:56.266Z,93367.59
2023-03-22T04:33:06.064Z,93365.67
2023-03-22T04:38:12.788Z,93362.25
2023-03-22T04:43:19.723Z,93358.34
2023-03-22T04:48:27.995Z,93357.58
2023-03-22T04:53:36.396Z,93351.75
2023-03-22T04:58:44.604Z,93354.66
2023-03-22T05:03:51.236Z,93349.10
2023-03-22T05:08:57.928Z,93343.30
2023-03-22T05:14:05.641Z,93358.88
2023-03-22T05:19:13.929Z,93357.83
2023-03-22T05:24:20.666Z,93362.58
2023-03-22T05:29:28.844Z,93373.95
2023-03-22T05:34:37.474Z,93362.60
2023-03-22T05:39:44.182Z,93363.69
2023-03-22T05:44:50.949Z,93368.97
2023-03-22T05:49:57.631Z,93368.70
2023-03-22T05:55:04.622Z,93372.94
2023-03-22T06:00:15.336Z,93378.22
2023-03-22T06:05:22.086Z,93380.61
2023-03-22T06:10:29.087Z,93377.44
2023-03-22T06:15:35.811Z,93386.18
2023-03-22T06:20:42.882Z,93372.41
2023-03-22T06:25:49.677Z,93385.64
2023-03-22T06:30:56.956Z,93392.26
2023-03-22T06:36:04.978Z,93389.33
2023-03-22T06:41:11.955Z,93395.42
2023-03-22T06:46:19.625Z,93395.67
2023-03-22T06:51:26.623Z,93393.80
2023-03-22T06:56:33.448Z,93396.67
2023-03-22T07:01:40.326Z,93401.67
2023-03-22T07:06:47.055Z,93413.01
2023-03-22T07:11:54.047Z,93413.95
2023-03-22T07:17:01.498Z,93409.20
2023-03-22T07:22:08.449Z,93413.63
2023-03-22T07:27:15.793Z,93414.69
2023-03-22T07:32:22.925Z,93422.94
2023-03-22T07:37:29.983Z,93419.09
2023-03-22T07:42:37.346Z,93425.73
2023-03-22T07:47:45.943Z,93421.08
2023-03-22T07:52:53.194Z,93422.41
2023-03-22T07:58:00.187Z,93422.95
2023-03-22T08:03:07.359Z,93426.69
2023-03-22T08:08:14.463Z,93420.64
2023-03-22T08:13:21.529Z,93427.52
2023-03-22T08:18:28.859Z,93423.89
2023-03-22T08:23:41.873Z,93426.33
2023-03-22T08:28:44.778Z,93428.07
2023-03-22T08:33:53.460Z,93423.78
2023-03-22T08:39:00.258Z,93421.73
2023-03-22T08:44:07.343Z,93423.03
2023-03-22T08:49:15.657Z,93418.89
2023-03-22T08:54:23.157Z,93421.14
2023-03-22T08:59:30.007Z,93420.72
2023-03-22T09:04:36.808Z,93417.63
2023-03-22T09:09:43.406Z,93409.16
2023-03-22T09:14:50.341Z,93423.80
2023-03-22T09:20:11.078Z,93420.73
2023-03-22T09:25:06.420Z,93406.23
2023-03-22T09:30:14.502Z,93398.88
2023-03-22T09:35:21.592Z,93389.69
2023-03-22T09:40:31.923Z,93389.09
2023-03-22T09:45:44.430Z,93375.95
2023-03-22T09:50:53.988Z,93382.77
2023-03-22T09:56:26.816Z,93387.94
2023-03-22T10:01:43.689Z,93374.34
2023-03-22T10:07:01.569Z,93368.11
2023-03-22T10:12:18.432Z,93375.80
2023-03-22T10:17:28.414Z,93356.94
2023-03-22T10:22:39.694Z,93361.21
2023-03-22T10:27:49.424Z,93350.81
2023-03-22T10:33:05.413Z,93353.14
2023-03-22T10:38:19.559Z,93345.86
2023-03-22T10:43:40.330Z,93345.36
2023-03-22T10:48:51.018Z,93347.61
2023-03-22T10:53:58.622Z,93359.89
2023-03-22T10:59:05.464Z,93360.07
2023-03-22T11:04:17.910Z,93353.41
2023-03-22T11:09:26.210Z,93350.51
2023-03-22T11:14:44.666Z,93350.23
2023-03-22T11:20:10.943Z,93343.81
2023-03-22T11:25:30.469Z,93340.77
2023-03-22T11:30:37.490Z,93345.60
2023-03-22T11:35:47.978Z,93333.26
2023-03-22T11:41:01.855Z,93338.31
2023-03-22T11:46:12.493Z,93322.55
2023-03-22T11:51:33.681Z,93312.23
2023-03-22T11:56:47.170Z,93315.02
2023-03-22T12:02:24.228Z,93310.14
2023-03-22T12:07:34.180Z,93303.20
2023-03-22T12:12:54.399Z,93305.12
2023-03-22T12:18:08.550Z,93305.22
2023-03-22T12:23:22.677Z,93293.39
2023-03-22T12:28:45.600Z,93277.28
2023-03-22T12:33:55.614Z,93271.59
2023-03-22T12:39:05.416Z,93263.54
2023-03-22T12:44:37.989Z,93268.19
2023-03-22T12:50:15.910Z,93249.44
2023-03-22T12:55:40.596Z,93251.53
2023-03-22T13:00:58.369Z,93244.72
2023-03-22T13:06:28.680Z,93250.05
2023-03-22T13:11:35.562Z,93237.80
2023-03-22T13:16:55.806Z,93224.58
2023-03-22T13:22:21.317Z,93224.20
2023-03-22T13:27:59.115Z,93217.84
2023-03-22T13:33:13.147Z,93212.60
2023-03-22T13:38:26.676Z,93215.06
2023-03-22T13:43:51.708Z,93211.39
2023-03-22T13:49:21.405Z,93210.94
2023-03-22T13:54:35.382Z,93212.00
2023-03-22T14:00:12.064Z,93201.05
2023-03-22T14:05:22.903Z,93196.69
2023-03-22T14:10:47.967Z,93190.02
2023-03-22T14:16:10.936Z,93181.66
2023-03-22T14:21:22.469Z,93182.88
